createdAt,value
2023-04-24T00:00:42.007Z,0.80
2023-04-24T00:03:09.910Z,0.63
2023-04-24T00:05:41.268Z,0.82
2023-04-24T00:08:07.946Z,1.02
2023-04-24T00:10:35.715Z,0.68
2023-04-24T00:13:05.039Z,0.70
2023-04-24T00:15:32.075Z,0.60
2023-04-24T00:17:58.833Z,0.82
2023-04-24T00:20:30.464Z,0.80
2023-04-24T00:23:06.686Z,0.73
2023-04-24T00:25:33.223Z,0.60
2023-04-24T00:27:59.762Z,0.90
2023-04-24T00:30:28.662Z,0.50
2023-04-24T00:32:57.785Z,0.70
2023-04-24T00:35:24.549Z,0.88
2023-04-24T00:37:52.391Z,0.68
2023-04-24T00:40:19.066Z,0.80
2023-04-24T00:42:48.166Z,0.93
2023-04-24T00:45:14.750Z,0.73
2023-04-24T00:47:42.990Z,0.60
2023-04-24T00:50:19.548Z,0.57
2023-04-24T00:52:46.293Z,0.60
2023-04-24T00:55:12.906Z,0.93
2023-04-24T00:57:39.618Z,0.70
2023-04-24T01:00:12.312Z,0.80
2023-04-24T01:02:44.240Z,0.80
2023-04-24T01:05:11.065Z,0.70
2023-04-24T01:07:38.268Z,0.47
2023-04-24T01:10:09.894Z,0.60
2023-04-24T01:12:36.481Z,0.60
2023-04-24T01:15:08.296Z,0.50
2023-04-24T01:17:34.892Z,0.60
2023-04-24T01:20:02.231Z,0.80
2023-04-24T01:22:28.799Z,0.93
2023-04-24T01:24:55.347Z,0.80
2023-04-24T01:27:21.935Z,0.60
2023-04-24T01:29:50.310Z,0.70
2023-04-24T01:32:22.664Z,0.70
2023-04-24T01:34:49.476Z,0.60
2023-04-24T01:37:22.132Z,0.68
2023-04-24T01:39:48.769Z,0.70
2023-04-24T01:42:18.872Z,0.82
2023-04-24T01:44:48.251Z,0.77
2023-04-24T01:47:14.881Z,0.60
2023-04-24T01:49:41.648Z,0.60
2023-04-24T01:52:08.675Z,0.60
2023-04-24T01:54:48.243Z,0.85
2023-04-24T01:57:17.982Z,0.70
2023-04-24T01:59:44.705Z,0.70
2023-04-24T02:02:11.558Z,0.80
2023-04-24T02:04:42.490Z,0.50
2023-04-24T02:07:13.180Z,0.77
2023-04-24T02:09:39.758Z,0.70
2023-04-24T02:12:06.335Z,0.50
2023-04-24T02:14:33.096Z,0.70
2023-04-24T02:17:05.959Z,0.60
2023-04-24T02:19:32.521Z,0.75
2023-04-24T02:21:59.096Z,0.60
2023-04-24T02:24:25.668Z,0.50
2023-04-24T02:26:52.289Z,0.63
2023-04-24T02:29:18.956Z,0.65
2023-04-24T02:31:45.664Z,0.52
2023-04-24T02:34:12.282Z,0.75
2023-04-24T02:36:38.828Z,0.80
2023-04-24T02:39:05.447Z,0.75
2023-04-24T02:41:33.756Z,0.68
2023-04-24T02:44:00.403Z,1.00
2023-04-24T02:46:27.184Z,0.73
2023-04-24T02:48:53.788Z,0.60
2023-04-24T02:51:21.606Z,0.80
2023-04-24T02:53:50.511Z,0.57
2023-04-24T02:56:18.620Z,0.70
2023-04-24T02:58:54.696Z,0.63
2023-04-24T03:01:23.828Z,0.57
2023-04-24T03:03:53.622Z,0.60
2023-04-24T03:06:22.792Z,0.60
2023-04-24T03:08:49.344Z,0.80
2023-04-24T03:11:15.897Z,0.40
2023-04-24T03:13:42.495Z,0.68
2023-04-24T03:16:09.120Z,0.52
2023-04-24T03:18:35.767Z,0.60
2023-04-24T03:21:02.508Z,0.60
2023-04-24T03:23:29.059Z,0.50
2023-04-24T03:25:56.106Z,0.60
2023-04-24T03:28:26.104Z,0.57
2023-04-24T03:30:54.608Z,0.60
2023-04-24T03:33:21.133Z,0.50
2023-04-24T03:35:47.992Z,0.70
2023-04-24T03:38:14.593Z,0.63
2023-04-24T03:40:41.157Z,0.60
2023-04-24T03:43:14.414Z,0.60
2023-04-24T03:45:41.000Z,0.50
2023-04-24T03:48:08.632Z,0.70
2023-04-24T03:50:40.785Z,0.80
2023-04-24T03:53:07.498Z,0.65
2023-04-24T03:55:34.874Z,0.82
2023-04-24T03:58:01.824Z,0.82
2023-04-24T04:00:32.860Z,0.52
2023-04-24T04:02:59.556Z,0.63
2023-04-24T04:05:26.259Z,0.60
2023-04-24T04:07:54.503Z,0.50
2023-04-24T04:10:21.298Z,0.63
2023-04-24T04:12:47.915Z,0.68
2023-04-24T04:15:14.535Z,0.60
2023-04-24T04:17:42.755Z,0.70
2023-04-24T04:20:14.510Z,0.73
2023-04-24T04:22:49.933Z,0.70
2023-04-24T04:25:16.919Z,0.52
2023-04-24T04:27:43.471Z,0.47
2023-04-24T04:30:10.901Z,0.60
2023-04-24T04:32:38.311Z,0.60
2023-04-24T04:35:07.536Z,0.70
2023-04-24T04:37:37.747Z,0.60
2023-04-24T04:40:07.876Z,0.70
2023-04-24T04:42:35.170Z,0.80
2023-04-24T04:45:03.385Z,0.52
2023-04-24T04:47:34.882Z,0.82
2023-04-24T04:50:02.836Z,0.55
2023-04-24T04:52:29.464Z,0.60
2023-04-24T04:54:56.332Z,0.60
2023-04-24T04:57:22.896Z,0.52
2023-04-24T04:59:49.492Z,0.80
2023-04-24T05:02:17.041Z,0.70
2023-04-24T05:04:43.982Z,0.75
2023-04-24T05:07:18.866Z,0.73
2023-04-24T05:09:45.876Z,5.05
2023-04-24T05:12:12.453Z,6.47
2023-04-24T05:14:39.031Z,4.30
2023-04-24T05:17:05.780Z,4.15
2023-04-24T05:19:36.910Z,3.03
2023-04-24T05:22:05.276Z,3.40
2023-04-24T05:24:31.850Z,2.75
2023-04-24T05:27:02.289Z,3.20
2023-04-24T05:29:34.631Z,2.78
2023-04-24T05:32:01.690Z,2.95
2023-04-24T05:34:33.766Z,2.47
2023-04-24T05:37:00.325Z,2.65
2023-04-24T05:39:27.068Z,3.05
2023-04-24T05:41:53.646Z,3.22
2023-04-24T05:44:23.077Z,2.92
2023-04-24T05:46:49.771Z,3.10
2023-04-24T05:49:16.401Z,2.55
2023-04-24T05:51:42.956Z,2.92
2023-04-24T05:54:09.587Z,3.50
2023-04-24T05:56:36.317Z,2.83
2023-04-24T05:59:02.874Z,3.25
2023-04-24T06:01:29.465Z,3.08
2023-04-24T06:06:37.326Z,2.70
2023-04-24T06:09:06.192Z,2.53
2023-04-24T06:11:34.079Z,2.58
2023-04-24T06:14:00.970Z,2.30
2023-04-24T06:16:27.648Z,2.22
2023-04-24T06:18:54.247Z,2.25
2023-04-24T06:21:20.890Z,2.40
2023-04-24T06:23:48.269Z,2.78
2023-04-24T06:26:14.888Z,2.58
2023-04-24T06:28:41.523Z,2.47
2023-04-24T06:31:20.730Z,2.20
2023-04-24T06:33:50.215Z,2.55
2023-04-24T06:36:22.737Z,2.00
2023-04-24T06:38:49.285Z,2.53
2023-04-24T06:41:15.909Z,2.25
2023-04-24T06:43:42.636Z,2.38
2023-04-24T06:46:11.323Z,1.90
2023-04-24T06:48:38.707Z,2.03
2023-04-24T06:51:05.285Z,2.25
2023-04-24T06:53:31.873Z,1.85
2023-04-24T06:55:58.477Z,2.15
2023-04-24T06:58:26.347Z,2.00
2023-04-24T07:00:53.663Z,2.10
2023-04-24T07:03:20.840Z,2.17
2023-04-24T07:05:48.737Z,1.92
2023-04-24T07:08:15.324Z,1.70
2023-04-24T07:10:42.067Z,1.80
2023-04-24T07:13:09.431Z,1.45
2023-04-24T07:15:36.332Z,1.80
2023-04-24T07:18:05.422Z,1.60
2023-04-24T07:20:32.565Z,1.50
2023-04-24T07:22:59.134Z,1.40
2023-04-24T07:25:25.689Z,1.50
2023-04-24T07:27:52.239Z,1.30
2023-04-24T07:30:21.934Z,1.90
2023-04-24T07:32:48.509Z,1.40
2023-04-24T07:35:15.119Z,1.33
2023-04-24T07:37:46.583Z,1.80
2023-04-24T07:40:17.725Z,1.60
2023-04-24T07:42:49.340Z,1.90
2023-04-24T07:45:16.332Z,1.70
2023-04-24T07:47:44.992Z,1.55
2023-04-24T07:50:12.079Z,1.58
2023-04-24T07:52:38.719Z,1.38
2023-04-24T07:55:07.357Z,1.42
2023-04-24T07:57:36.220Z,1.80
2023-04-24T08:00:04.551Z,1.38
2023-04-24T08:02:31.264Z,1.60
2023-04-24T08:05:00.106Z,1.80
2023-04-24T08:07:29.661Z,1.33
2023-04-24T08:09:56.278Z,2.22
2023-04-24T08:12:22.851Z,1.52
2023-04-24T08:14:49.460Z,1.90
2023-04-24T08:17:16.213Z,1.80
2023-04-24T08:19:49.199Z,1.50
2023-04-24T08:22:16.359Z,1.70
2023-04-24T08:24:42.965Z,1.67
2023-04-24T08:27:12.642Z,1.80
2023-04-24T08:29:39.181Z,1.60
2023-04-24T08:32:05.840Z,1.80
2023-04-24T08:34:32.474Z,1.88
2023-04-24T08:37:01.665Z,1.83
2023-04-24T08:39:28.325Z,1.48
2023-04-24T08:42:06.892Z,2.35
2023-04-24T08:44:33.750Z,2.10
2023-04-24T08:47:00.365Z,2.00
2023-04-24T08:49:29.486Z,1.90
2023-04-24T08:51:56.428Z,1.83
2023-04-24T08:54:23.069Z,1.83
2023-04-24T08:56:52.355Z,2.10
2023-04-24T08:59:22.685Z,1.90
2023-04-24T09:01:49.811Z,1.90
2023-04-24T09:04:21.229Z,1.75
2023-04-24T09:06:49.622Z,2.05
2023-04-24T09:09:17.540Z,1.95
2023-04-24T09:11:44.212Z,2.45
2023-04-24T09:14:11.842Z,2.17
2023-04-24T09:16:38.448Z,2.13
2023-04-24T09:19:05.158Z,2.00
2023-04-24T09:21:36.512Z,2.08
2023-04-24T09:24:07.203Z,2.30
2023-04-24T09:26:38.951Z,1.92
2023-04-24T09:29:06.042Z,1.85
2023-04-24T09:31:35.618Z,2.30
2023-04-24T09:34:08.166Z,2.10
2023-04-24T09:36:39.894Z,2.10
2023-04-24T09:39:09.458Z,2.10
2023-04-24T09:41:36.410Z,2.60
2023-04-24T09:44:13.724Z,2.08
2023-04-24T09:46:49.822Z,2.15
2023-04-24T09:49:20.809Z,2.53
2023-04-24T09:51:49.890Z,1.90
2023-04-24T09:54:18.366Z,1.85
2023-04-24T09:56:46.805Z,1.90
2023-04-24T09:59:20.873Z,2.50
2023-04-24T10:01:49.657Z,1.95
2023-04-24T10:04:21.466Z,2.20
2023-04-24T10:06:52.728Z,1.90
2023-04-24T10:09:24.527Z,2.20
2023-04-24T10:11:52.607Z,2.17
2023-04-24T10:14:24.345Z,2.10
2023-04-24T10:16:54.632Z,2.20
2023-04-24T10:19:21.421Z,1.80
2023-04-24T10:21:49.354Z,1.80
2023-04-24T10:24:17.416Z,1.73
2023-04-24T10:26:45.315Z,2.22
2023-04-24T10:29:13.799Z,2.00
2023-04-24T10:31:43.440Z,1.88
2023-04-24T10:34:10.982Z,2.28
2023-04-24T10:36:42.914Z,1.88
2023-04-24T10:39:17.898Z,2.15
2023-04-24T10:41:46.798Z,2.15
2023-04-24T10:44:15.717Z,1.90
2023-04-24T10:46:54.234Z,2.00
2023-04-24T10:49:29.596Z,2.00
2023-04-24T10:52:01.612Z,1.70
2023-04-24T10:54:36.200Z,1.67
2023-04-24T10:57:23.726Z,1.83
2023-04-24T10:59:51.502Z,1.88
2023-04-24T11:02:19.272Z,1.60
2023-04-24T11:04:46.371Z,2.00
2023-04-24T11:07:13.437Z,2.05
2023-04-24T11:09:44.081Z,1.60
2023-04-24T11:12:16.546Z,2.13
2023-04-24T11:14:59.013Z,1.90
2023-04-24T11:17:54.670Z,1.63
2023-04-24T11:20:28.238Z,1.63
2023-04-24T11:22:59.085Z,1.90
2023-04-24T11:25:26.248Z,1.70
2023-04-24T11:28:17.885Z,1.70
2023-04-24T11:30:47.767Z,1.50
2023-04-24T11:33:21.465Z,1.60
2023-04-24T11:35:48.037Z,1.80
2023-04-24T11:38:23.965Z,1.70
2023-04-24T11:40:53.172Z,1.50
2023-04-24T11:43:20.894Z,1.55
2023-04-24T11:45:53.492Z,1.52
2023-04-24T11:48:22.595Z,1.90
2023-04-24T11:50:49.598Z,1.75
2023-04-24T11:53:16.150Z,1.75
2023-04-24T11:55:42.696Z,1.40
2023-04-24T11:58:09.443Z,1.40
2023-04-24T12:00:39.563Z,1.50
2023-04-24T12:03:09.784Z,1.45
2023-04-24T12:05:41.639Z,1.60
2023-04-24T12:08:11.451Z,1.70
2023-04-24T12:10:38.443Z,1.30
2023-04-24T12:13:05.110Z,1.38
2023-04-24T12:15:31.724Z,1.35
2023-04-24T12:17:58.873Z,1.23
2023-04-24T12:20:32.944Z,1.30
2023-04-24T12:23:01.282Z,1.30
2023-04-24T12:25:34.147Z,1.50
2023-04-24T12:28:06.730Z,1.70
2023-04-24T12:30:52.866Z,1.42
2023-04-24T12:33:21.105Z,1.20
2023-04-24T12:35:49.235Z,1.10
2023-04-24T12:38:23.268Z,1.20
2023-04-24T12:41:15.966Z,1.23
2023-04-24T12:43:57.973Z,1.20
2023-04-24T12:46:27.170Z,1.10
2023-04-24T12:48:54.214Z,1.08
2023-04-24T12:51:23.276Z,1.30
2023-04-24T12:53:49.833Z,1.20
2023-04-24T12:56:16.466Z,1.23
2023-04-24T12:58:43.041Z,1.20
2023-04-24T13:01:09.668Z,1.10
2023-04-24T13:03:39.162Z,1.13
2023-04-24T13:06:05.778Z,1.10
2023-04-24T13:08:32.346Z,1.27
2023-04-24T13:10:58.910Z,1.25
2023-04-24T13:13:25.487Z,0.90
2023-04-24T13:15:52.074Z,1.20
2023-04-24T13:18:18.667Z,0.80
2023-04-24T13:20:48.564Z,1.25
2023-04-24T13:23:15.826Z,1.15
2023-04-24T13:25:45.625Z,1.27
2023-04-24T13:28:12.167Z,0.73
2023-04-24T13:30:43.851Z,1.27
2023-04-24T13:33:13.403Z,1.20
2023-04-24T13:35:41.511Z,1.00
2023-04-24T13:38:10.804Z,0.80
2023-04-24T13:40:45.850Z,1.05
2023-04-24T13:43:12.439Z,1.20
2023-04-24T13:45:42.918Z,0.93
2023-04-24T13:48:12.251Z,0.80
2023-04-24T13:50:39.249Z,1.00
2023-04-24T13:53:06.070Z,1.00
2023-04-24T13:55:32.645Z,1.00
2023-04-24T13:58:01.553Z,1.15
2023-04-24T14:00:28.850Z,1.08
2023-04-24T14:03:07.063Z,0.90
2023-04-24T14:05:39.390Z,0.93
2023-04-24T14:08:07.730Z,0.98
2023-04-24T14:10:34.288Z,0.70
2023-04-24T14:13:00.983Z,1.13
2023-04-24T14:15:27.606Z,0.93
2023-04-24T14:17:54.217Z,0.90
2023-04-24T14:20:22.380Z,0.80
2023-04-24T14:22:48.948Z,0.90
2023-04-24T14:25:21.163Z,0.90
2023-04-24T14:27:50.086Z,1.08
2023-04-24T14:30:23.020Z,0.90
2023-04-24T14:32:49.925Z,0.80
2023-04-24T14:35:16.603Z,1.00
2023-04-24T14:37:43.733Z,1.00
2023-04-24T14:40:31.962Z,0.80
2023-04-24T14:43:05.691Z,1.02
2023-04-24T14:45:35.665Z,1.17
2023-04-24T14:48:02.289Z,1.20
2023-04-24T14:50:29.241Z,1.27
2023-04-24T14:53:02.159Z,1.17
2023-04-24T14:55:31.997Z,1.30
2023-04-24T14:58:00.772Z,0.90
2023-04-24T15:00:27.375Z,0.90
2023-04-24T15:02:54.201Z,0.95
2023-04-24T15:05:24.222Z,1.65
2023-04-24T15:07:51.001Z,1.40
2023-04-24T15:10:18.643Z,1.30
2023-04-24T15:12:45.745Z,1.20
2023-04-24T15:15:12.324Z,1.10
2023-04-24T15:17:38.922Z,1.23
2023-04-24T15:20:07.361Z,1.05
2023-04-24T15:22:34.121Z,1.20
2023-04-24T15:25:00.752Z,1.17
2023-04-24T15:27:28.905Z,1.20
2023-04-24T15:29:55.552Z,0.98
2023-04-24T15:32:22.557Z,1.02
2023-04-24T15:34:51.449Z,1.02
2023-04-24T15:37:20.793Z,1.00
2023-04-24T15:39:48.191Z,1.10
2023-04-24T15:42:14.738Z,1.20
2023-04-24T15:44:41.298Z,1.40
2023-04-24T15:47:07.898Z,1.38
2023-04-24T15:49:34.538Z,1.23
2023-04-24T15:52:02.648Z,1.20
2023-04-24T15:54:29.272Z,1.10
2023-04-24T15:56:55.880Z,1.02
2023-04-24T15:59:23.119Z,1.27
2023-04-24T16:01:50.691Z,1.40
2023-04-24T16:04:21.275Z,1.00
2023-04-24T16:06:48.396Z,1.20
2023-04-24T16:09:15.317Z,1.13
2023-04-24T16:11:41.923Z,1.30
2023-04-24T16:14:10.157Z,0.90
2023-04-24T16:16:37.498Z,1.10
2023-04-24T16:19:04.232Z,1.13
2023-04-24T16:21:31.847Z,1.60
2023-04-24T16:23:58.439Z,1.45
2023-04-24T16:26:25.057Z,1.08
2023-04-24T16:28:51.606Z,0.90
2023-04-24T16:31:20.809Z,0.88
2023-04-24T16:33:47.607Z,1.13
2023-04-24T16:36:15.167Z,0.85
2023-04-24T16:38:41.731Z,0.90
2023-04-24T16:41:08.334Z,0.80
2023-04-24T16:43:34.897Z,1.25
2023-04-24T16:46:01.531Z,1.00
2023-04-24T16:48:28.116Z,0.75
2023-04-24T16:50:54.693Z,1.10
2023-04-24T16:53:21.295Z,1.08
2023-04-24T16:55:50.551Z,0.90
2023-04-24T16:58:17.757Z,0.80
2023-04-24T17:00:44.774Z,1.08
2023-04-24T17:03:12.825Z,0.70
2023-04-24T17:05:39.731Z,1.02
2023-04-24T17:08:06.318Z,0.77
2023-04-24T17:10:32.890Z,0.75
2023-04-24T17:13:05.677Z,1.00
2023-04-24T17:15:32.239Z,0.82
2023-04-24T17:17:58.916Z,0.80
2023-04-24T17:20:26.904Z,0.82
2023-04-24T17:22:54.865Z,0.75
2023-04-24T17:25:21.549Z,1.00
2023-04-24T17:27:48.158Z,1.00
2023-04-24T17:30:17.513Z,0.90
2023-04-24T17:32:44.114Z,0.80
2023-04-24T17:35:10.849Z,0.90
2023-04-24T17:37:37.526Z,0.80
2023-04-24T17:40:04.444Z,0.90
2023-04-24T17:42:31.224Z,0.70
2023-04-24T17:44:57.795Z,0.65
2023-04-24T17:47:26.269Z,0.90
2023-04-24T17:49:53.014Z,0.85
2023-04-24T17:52:20.179Z,0.85
2023-04-24T17:54:46.778Z,0.80
2023-04-24T17:57:13.336Z,1.02
2023-04-24T17:59:40.037Z,0.60
2023-04-24T18:02:06.620Z,0.90
2023-04-24T18:04:33.324Z,0.73
2023-04-24T18:07:00.037Z,0.90
2023-04-24T18:09:26.593Z,0.80
2023-04-24T18:11:53.162Z,0.80
2023-04-24T18:14:19.824Z,0.80
2023-04-24T18:16:46.397Z,0.88
2023-04-24T18:19:13.071Z,0.95
2023-04-24T18:21:39.636Z,0.70
2023-04-24T18:24:06.378Z,0.80
2023-04-24T18:26:32.949Z,0.73
2023-04-24T18:28:59.499Z,0.95
2023-04-24T18:31:29.177Z,0.73
2023-04-24T18:33:55.883Z,0.88
2023-04-24T18:36:22.462Z,1.00
2023-04-24T18:38:49.220Z,0.90
2023-04-24T18:41:16.147Z,0.88
2023-04-24T18:43:42.752Z,1.10
2023-04-24T18:46:09.365Z,0.70
2023-04-24T18:48:35.946Z,0.95
2023-04-24T18:51:02.592Z,0.82
2023-04-24T18:53:29.156Z,0.95
2023-04-24T18:55:55.863Z,1.05
2023-04-24T18:58:22.409Z,1.20
2023-04-24T19:00:50.591Z,0.88
2023-04-24T19:03:17.345Z,0.90
2023-04-24T19:05:44.018Z,1.00
2023-04-24T19:08:10.656Z,0.90
2023-04-24T19:10:37.236Z,0.98
2023-04-24T19:13:05.400Z,1.25
2023-04-24T19:15:33.546Z,1.02
2023-04-24T19:18:00.636Z,1.33
2023-04-24T19:20:27.271Z,0.90
2023-04-24T19:22:53.897Z,1.25
2023-04-24T19:25:20.494Z,0.95
2023-04-24T19:27:47.056Z,1.10
2023-04-24T19:30:15.434Z,1.05
2023-04-24T19:32:42.101Z,0.98
2023-04-24T19:35:08.834Z,0.85
2023-04-24T19:37:35.516Z,1.10
2023-04-24T19:40:02.331Z,1.02
2023-04-24T19:42:42.697Z,0.90
2023-04-24T19:45:11.898Z,0.85
2023-04-24T19:47:41.538Z,1.40
2023-04-24T19:50:15.188Z,1.17
2023-04-24T19:52:47.321Z,1.25
2023-04-24T19:55:15.589Z,1.08
2023-04-24T19:57:42.495Z,1.10
2023-04-24T20:00:09.682Z,0.95
2023-04-24T20:02:36.402Z,1.40
2023-04-24T20:05:03.491Z,1.20
2023-04-24T20:07:32.523Z,1.13
2023-04-24T20:09:59.078Z,1.13
2023-04-24T20:12:25.871Z,1.25
2023-04-24T20:14:52.431Z,1.50
2023-04-24T20:17:18.992Z,1.45
2023-04-24T20:19:49.317Z,1.42
2023-04-24T20:22:24.443Z,1.48
2023-04-24T20:24:51.710Z,1.20
2023-04-24T20:27:18.321Z,1.30
2023-04-24T20:29:44.933Z,1.63
2023-04-24T20:32:11.493Z,1.55
2023-04-24T20:34:38.061Z,1.55
2023-04-24T20:37:05.353Z,1.27
2023-04-24T20:39:31.995Z,1.52
2023-04-24T20:41:58.814Z,1.52
2023-04-24T20:44:28.441Z,1.60
2023-04-24T20:46:55.077Z,1.25
2023-04-24T20:49:21.633Z,1.83
2023-04-24T20:51:48.336Z,1.42
2023-04-24T20:54:14.913Z,1.60
2023-04-24T20:56:41.500Z,1.83
2023-04-24T20:59:08.076Z,1.35
2023-04-24T21:01:34.671Z,1.80
2023-04-24T21:04:01.362Z,2.28
2023-04-24T21:06:30.923Z,1.98
2023-04-24T21:08:57.469Z,1.83
2023-04-24T21:11:24.020Z,1.98
2023-04-24T21:13:50.989Z,1.80
2023-04-24T21:16:20.918Z,2.40
2023-04-24T21:18:47.508Z,1.98
2023-04-24T21:21:14.120Z,1.75
2023-04-24T21:23:43.218Z,1.60
2023-04-24T21:26:10.296Z,1.98
2023-04-24T21:28:39.428Z,1.75
2023-04-24T21:31:11.621Z,2.00
2023-04-24T21:33:42.303Z,1.60
2023-04-24T21:36:09.257Z,2.08
2023-04-24T21:38:35.847Z,1.90
2023-04-24T21:41:05.371Z,2.00
2023-04-24T21:43:43.403Z,1.85
2023-04-24T21:46:11.509Z,2.20
2023-04-24T21:48:38.124Z,2.00
2023-04-24T21:51:04.694Z,2.10
2023-04-24T21:53:31.270Z,2.08
2023-04-24T21:55:57.852Z,2.13
2023-04-24T21:58:24.552Z,2.00
2023-04-24T22:00:51.153Z,2.20
2023-04-24T22:03:17.949Z,1.80
2023-04-24T22:05:44.958Z,1.65
2023-04-24T22:08:24.514Z,2.15
2023-04-24T22:10:51.983Z,2.08
2023-04-24T22:13:24.253Z,2.00
2023-04-24T22:15:51.102Z,1.70
2023-04-24T22:18:22.164Z,2.05
2023-04-24T22:20:49.708Z,1.60
2023-04-24T22:23:16.495Z,1.90
2023-04-24T22:25:43.055Z,1.92
2023-04-24T22:28:09.622Z,1.88
2023-04-24T22:30:36.201Z,1.67
2023-04-24T22:33:03.782Z,1.98
2023-04-24T22:35:30.331Z,1.60
2023-04-24T22:37:56.921Z,1.80
2023-04-24T22:40:25.168Z,1.90
2023-04-24T22:42:54.346Z,2.38
2023-04-24T22:45:23.716Z,1.90
2023-04-24T22:47:51.005Z,2.30
2023-04-24T22:50:17.611Z,1.88
2023-04-24T22:52:44.171Z,1.77
2023-04-24T22:55:11.643Z,1.90
2023-04-24T22:57:41.286Z,1.85
2023-04-24T23:00:11.148Z,2.33
2023-04-24T23:02:38.745Z,2.05
2023-04-24T23:05:08.233Z,2.00
2023-04-24T23:07:35.974Z,1.92
2023-04-24T23:10:09.094Z,2.08
2023-04-24T23:12:35.848Z,1.92
2023-04-24T23:15:05.114Z,1.88
2023-04-24T23:17:31.740Z,2.08
2023-04-24T23:19:58.366Z,2.00
2023-04-24T23:22:24.907Z,2.20
2023-04-24T23:24:51.494Z,1.85
2023-04-24T23:27:18.042Z,1.70
2023-04-24T23:29:44.625Z,2.13
2023-04-24T23:32:16.075Z,1.90
2023-04-24T23:34:49.544Z,1.95
2023-04-24T23:37:18.353Z,2.10
2023-04-24T23:39:45.839Z,2.17
2023-04-24T23:42:12.407Z,1.85
2023-04-24T23:44:39.050Z,1.88
2023-04-24T23:47:05.632Z,2.08
2023-04-24T23:49:32.193Z,1.98
2023-04-24T23:51:58.758Z,1.67
2023-04-24T23:54:26.219Z,2.10
2023-04-24T23:56:52.773Z,2.15
2023-04-24T23:59:22.218Z,1.80
